CheckWX is a tool to help pilots better visualize weather data.  It is not intended as a substitute for an official pre-flight weather briefing.

02:11:30 UTC

KRIV TAF
March ARB Airport
Riverside, California, USA
TAF KRIV 172002Z 1720/1902 30010KT 9999 SKC QNH2996INS WND 240V350 BECMG 1721/1722 04010G15KT 9999 SKC QNH2994INS WND 360V090 TEMPO 1721/1723 06012G20KT BECMG 1801/1802 04006KT 9999 SKC QNH2996INS BECMG 1805/1806 VRB04KT 9999 SKC QNH2999INS BECMG 1816/1817 11006KT 9999 SKC QNH2995INS BECMG 1820/1821 33010KT 9999 SKC QNH2986INS TX31/1722Z TN05/1813Z

Nov-17@
20:00 UTC

Nov-17 @ 20:00 UTC

Nov-17@
21:00 UTC

Nov-17 @ 21:00 UTC

TAF KRIV 172002Z 1720/1902 30010KT 9999 SKC QNH2996INS WND 240V350

Expired

Wind
  • 300° at 10 KTS
Cloud Levels
  • Clear skies

Nov-17@
21:00 UTC

Nov-17 @ 21:00 UTC

Nov-17@
23:00 UTC

Nov-17 @ 23:00 UTC

TEMPO 1721/1723 06012G20KT

Expired

Wind
  • 060° at 12 KTS
  • {Gusting to 20 KTS

Nov-17@
21:00 UTC

Nov-17 @ 21:00 UTC

Nov-18@
01:00 UTC

Nov-18 @ 01:00 UTC

BECMG 1721/1722 04010G15KT 9999 SKC QNH2994INS WND 360V090

Expired

Wind
  • 040° at 10 KTS
  • {Gusting to 15 KTS
Cloud Levels
  • Clear skies

Nov-18@
01:00 UTC

Nov-18 @ 01:00 UTC

Nov-18@
05:00 UTC

Nov-18 @ 05:00 UTC

BECMG 1801/1802 04006KT 9999 SKC QNH2996INS

Becoming

Becoming Conditions expected by Mon, Nov 18, 2019 @ 02:00 UTC

Wind
  • 040° at 6 KTS
Cloud Levels
  • Clear skies

Nov-18@
05:00 UTC

Nov-18 @ 05:00 UTC

Nov-18@
16:00 UTC

Nov-18 @ 16:00 UTC

BECMG 1805/1806 VRB04KT 9999 SKC QNH2999INS

Becoming

Becoming Conditions expected by Mon, Nov 18, 2019 @ 06:00 UTC

Wind
  • Variable at 4 KTS
Cloud Levels
  • Clear skies

Nov-18@
16:00 UTC

Nov-18 @ 16:00 UTC

Nov-18@
20:00 UTC

Nov-18 @ 20:00 UTC

BECMG 1816/1817 11006KT 9999 SKC QNH2995INS

Becoming

Becoming Conditions expected by Mon, Nov 18, 2019 @ 17:00 UTC

Wind
  • 110° at 6 KTS
Cloud Levels
  • Clear skies

Nov-18@
20:00 UTC

Nov-18 @ 20:00 UTC

Nov-19@
02:00 UTC

Nov-19 @ 02:00 UTC

BECMG 1820/1821 33010KT 9999 SKC QNH2986INS TX31/1722Z TN05/1813Z

Becoming

Becoming Conditions expected by Mon, Nov 18, 2019 @ 21:00 UTC

Wind
  • 330° at 10 KTS
Cloud Levels
  • Clear skies